Days Creek, Oregon
Current Conditions -  °F | °C
As of 6:11 PM on Saturday 25 Oct 2014 (Local Time) from KRBG Reporting Station
Light Rain Light Rain  
Wind Chill: 54°   Ceiling: 5500
Heat Index: 54°   Visibility: 5mi
Dew Point: 49°   Wind: 6mph
Humidity: 83%   Direction: 180°S
Pressure: 29.89"   Gusts: NA
Location:  42.97°N, 123.17°W
Report Text: KRBG 260111Z AUTO 18005KT 5SM -RA OVC055 12/09 A2989 RMK AO2 P0004 T01220094 $
Loading
Personal Weather Stations






























Interactive Weather Map
Tropical Storm Tracking
New forecast layout! Learn more

10-Day Weather Forecast

Advertisements
Track Severe Weather on mobile